Time,TemperatureF,DewpointF,PressureIn,WindDirection,WindDirectionDegrees,WindSpeedMPH,WindSpeedGustMPH,Humidity,HourlyPrecipIn,Conditions,Clouds,dailyrainin,SoftwareType,DateUTC
2013-05-12 00:03:00,-999.0,-99.9,29.69,SW,229,4.0,-999.0,85,-99.99,,,-99.99,,2013-05-12 04:03:00,
2013-05-12 00:12:00,49.0,45.0,29.69,SW,229,4.0,-999.0,85,-99.99,,,-99.99,,2013-05-12 04:12:00,
2013-05-12 00:22:00,49.0,45.0,29.68,SW,223,4.0,-999.0,85,-99.99,,,-99.99,,2013-05-12 04:22:00,
2013-05-12 00:33:00,47.0,43.0,29.68,NW,312,5.0,-999.0,85,-99.99,,,-99.99,,2013-05-12 04:33:00,
2013-05-12 00:43:00,47.0,43.0,29.68,NW,312,5.0,-999.0,85,-99.99,,,-99.99,,2013-05-12 04:43:00,
2013-05-12 00:52:00,44.0,41.0,29.72,NW,323,8.0,-999.0,88,-99.99,,,-99.99,,2013-05-12 04:52:00,
2013-05-12 01:02:00,43.0,40.0,29.73,NNW,344,9.0,-999.0,89,-99.99,,,-99.99,,2013-05-12 05:02:00,
2013-05-12 01:12:00,43.0,40.0,29.73,NNW,344,9.0,-999.0,89,-99.99,,,-99.99,,2013-05-12 05:12:00,
2013-05-12 01:22:00,42.0,39.0,29.75,NW,312,3.0,-999.0,90,-99.99,,,-99.99,,2013-05-12 05:22:00,
2013-05-12 01:32:00,41.0,38.0,29.75,WNW,292,5.0,-999.0,89,-99.99,,,-99.99,,2013-05-12 05:32:00,
2013-05-12 01:42:00,41.0,38.0,29.75,WNW,292,5.0,-999.0,89,-99.99,,,-99.99,,2013-05-12 05:42:00,
2013-05-12 01:51:00,40.0,37.0,29.76,North,352,4.0,-999.0,89,-99.99,,,-99.99,,2013-05-12 05:51:00,
2013-05-12 02:02:00,39.0,36.0,29.78,WNW,296,7.0,-999.0,88,-99.99,,,-99.99,,2013-05-12 06:02:00,
2013-05-12 02:11:00,39.0,36.0,29.78,WNW,296,7.0,-999.0,88,-99.99,,,-99.99,,2013-05-12 06:11:00,
2013-05-12 02:21:00,39.0,36.0,29.78,NNW,335,7.0,-999.0,88,-99.99,,,-99.99,,2013-05-12 06:21:00,
2013-05-12 02:32:00,38.0,34.0,29.78,NW,326,6.0,-999.0,87,-99.99,,,-99.99,,2013-05-12 06:32:00,
2013-05-12 02:42:00,38.0,34.0,29.78,NW,326,6.0,-999.0,87,-99.99,,,-99.99,,2013-05-12 06:42:00,
2013-05-12 02:52:00,38.0,34.0,29.78,WNW,288,3.0,-999.0,87,-99.99,,,-99.99,,2013-05-12 06:52:00,
2013-05-12 03:01:00,38.0,34.0,29.78,NNW,328,3.0,-999.0,87,-99.99,,,-99.99,,2013-05-12 07:01:00,
2013-05-12 03:11:00,38.0,34.0,29.78,NNW,328,3.0,-999.0,87,-99.99,,,-99.99,,2013-05-12 07:11:00,
2013-05-12 03:22:00,37.0,33.0,29.78,WNW,296,1.0,-999.0,86,-99.99,,,-99.99,,2013-05-12 07:22:00,
2013-05-12 03:32:00,37.0,33.0,29.78,West,271,1.0,-999.0,86,-99.99,,,-99.99,,2013-05-12 07:32:00,
2013-05-12 03:42:00,37.0,33.0,29.78,West,271,1.0,-999.0,86,-99.99,,,-99.99,,2013-05-12 07:42:00,
2013-05-12 03:52:00,36.0,33.0,29.78,West,261,0.0,-999.0,87,-99.99,,,-99.99,,2013-05-12 07:52:00,
2013-05-12 04:02:00,36.0,33.0,29.79,WNW,288,0.0,-999.0,87,-99.99,,,-99.99,,2013-05-12 08:02:00,
2013-05-12 04:11:00,36.0,33.0,29.79,WNW,288,0.0,-999.0,87,-99.99,,,-99.99,,2013-05-12 08:11:00,
2013-05-12 04:21:00,36.0,33.0,29.79,SSW,210,0.0,-999.0,88,-99.99,,,-99.99,,2013-05-12 08:21:00,
2013-05-12 04:32:00,35.0,32.0,29.79,SW,233,1.0,-999.0,88,-99.99,,,-99.99,,2013-05-12 08:32:00,
2013-05-12 04:42:00,35.0,32.0,29.79,SW,233,1.0,-999.0,88,-99.99,,,-99.99,,2013-05-12 08:42:00,
2013-05-12 04:53:00,35.0,32.0,29.79,SSW,195,1.0,-999.0,89,-99.99,,,-99.99,,2013-05-12 08:53:00,
2013-05-12 05:01:00,35.0,32.0,29.79,SSW,209,1.0,-999.0,89,-99.99,,,-99.99,,2013-05-12 09:01:00,
2013-05-12 05:11:00,35.0,32.0,29.79,SSW,209,1.0,-999.0,89,-99.99,,,-99.99,,2013-05-12 09:11:00,
2013-05-12 05:21:00,34.0,31.0,29.78,SW,215,1.0,-999.0,89,-99.99,,,-99.99,,2013-05-12 09:21:00,
2013-05-12 05:33:00,34.0,31.0,29.78,SSW,199,1.0,-999.0,89,-99.99,,,-99.99,,2013-05-12 09:33:00,
2013-05-12 05:43:00,34.0,31.0,29.78,SSW,199,1.0,-999.0,89,-99.99,,,-99.99,,2013-05-12 09:43:00,
2013-05-12 05:52:00,34.0,31.0,29.78,SSW,199,0.0,-999.0,89,-99.99,,,-99.99,,2013-05-12 09:52:00,
2013-05-12 06:03:00,34.0,31.0,29.78,SSW,199,0.0,-999.0,90,-99.99,,,-99.99,,2013-05-12 10:03:00,
2013-05-12 06:12:00,34.0,31.0,29.78,SSW,199,0.0,-999.0,90,-99.99,,,-99.99,,2013-05-12 10:12:00,
2013-05-12 06:23:00,34.0,31.0,29.78,SSW,199,0.0,-999.0,90,-99.99,,,-99.99,,2013-05-12 10:23:00,
2013-05-12 06:33:00,33.0,30.0,29.78,SSW,199,0.0,-999.0,90,-99.99,,,-99.99,,2013-05-12 10:33:00,
2013-05-12 06:42:00,33.0,30.0,29.78,SSW,199,0.0,-999.0,90,-99.99,,,-99.99,,2013-05-12 10:42:00,
2013-05-12 06:52:00,33.0,30.0,29.78,SSW,202,0.0,-999.0,90,-99.99,,,-99.99,,2013-05-12 10:52:00,
2013-05-12 07:02:00,34.0,31.0,29.79,SSW,202,0.0,-999.0,90,-99.99,,,-99.99,,2013-05-12 11:02:00,
2013-05-12 07:12:00,34.0,31.0,29.79,SSW,202,0.0,-999.0,90,-99.99,,,-99.99,,2013-05-12 11:12:00,
2013-05-12 07:22:00,35.0,32.0,29.79,SSW,193,1.0,-999.0,90,-99.99,,,-99.99,,2013-05-12 11:22:00,
2013-05-12 07:32:00,35.0,32.0,29.79,SSW,203,2.0,-999.0,89,-99.99,,,-99.99,,2013-05-12 11:32:00,
2013-05-12 07:42:00,35.0,32.0,29.79,SSW,203,2.0,-999.0,89,-99.99,,,-99.99,,2013-05-12 11:42:00,
2013-05-12 07:52:00,35.0,32.0,29.79,South,174,3.0,-999.0,89,-99.99,,,-99.99,,2013-05-12 11:52:00,
2013-05-12 08:02:00,36.0,33.0,29.79,South,174,2.0,-999.0,88,-99.99,,,-99.99,,2013-05-12 12:02:00,
2013-05-12 08:11:00,36.0,33.0,29.79,South,174,2.0,-999.0,88,-99.99,,,-99.99,,2013-05-12 12:11:00,
2013-05-12 08:22:00,37.0,34.0,29.79,SSE,164,4.0,-999.0,88,-99.99,,,-99.99,,2013-05-12 12:22:00,
2013-05-12 08:32:00,37.0,33.0,29.79,South,186,4.0,-999.0,86,-99.99,,,-99.99,,2013-05-12 12:32:00,
2013-05-12 08:42:00,37.0,33.0,29.79,South,186,4.0,-999.0,86,-99.99,,,-99.99,,2013-05-12 12:42:00,
2013-05-12 08:51:00,38.0,34.0,29.78,SSW,193,4.0,-999.0,85,-99.99,,,-99.99,,2013-05-12 12:51:00,
2013-05-12 09:02:00,39.0,34.0,29.79,SW,232,3.0,-999.0,82,-99.99,,,-99.99,,2013-05-12 13:02:00,
2013-05-12 09:11:00,39.0,34.0,29.79,SW,232,3.0,-999.0,82,-99.99,,,-99.99,,2013-05-12 13:11:00,
2013-05-12 09:21:00,40.0,35.0,29.79,SSW,202,3.0,-999.0,83,-99.99,,,-99.99,,2013-05-12 13:21:00,
2013-05-12 09:32:00,41.0,35.0,29.79,WSW,239,2.0,-999.0,80,-99.99,,,-99.99,,2013-05-12 13:32:00,
2013-05-12 09:42:00,41.0,35.0,29.79,WSW,239,2.0,-999.0,80,-99.99,,,-99.99,,2013-05-12 13:42:00,
2013-05-12 09:52:00,41.0,35.0,29.79,SSE,157,3.0,-999.0,78,-99.99,,,-99.99,,2013-05-12 13:52:00,
2013-05-12 10:01:00,40.0,34.0,29.79,SW,226,4.0,-999.0,80,-99.99,,,-99.99,,2013-05-12 14:01:00,
2013-05-12 10:11:00,40.0,34.0,29.79,SW,226,4.0,-999.0,80,-99.99,,,-99.99,,2013-05-12 14:11:00,
2013-05-12 10:21:00,41.0,35.0,29.79,SW,217,4.0,-999.0,78,-99.99,,,-99.99,,2013-05-12 14:21:00,
2013-05-12 10:32:00,39.0,34.0,29.78,WSW,257,4.0,-999.0,81,-99.99,,,-99.99,,2013-05-12 14:32:00,
2013-05-12 10:42:00,37.0,33.0,29.80,SSW,210,3.0,-999.0,86,-99.99,,,-99.99,,2013-05-12 14:42:00,
2013-05-12 10:52:00,37.0,33.0,29.80,SSW,210,3.0,-999.0,86,-99.99,,,-99.99,,2013-05-12 14:52:00,
2013-05-12 11:01:00,38.0,35.0,29.80,SSW,209,5.0,-999.0,89,-99.99,,,-99.99,,2013-05-12 15:01:00,
2013-05-12 11:11:00,38.0,35.0,29.80,SSW,209,5.0,-999.0,89,-99.99,,,-99.99,,2013-05-12 15:11:00,
2013-05-12 11:21:00,38.0,35.0,29.80,West,272,3.0,-999.0,89,-99.99,,,-99.99,,2013-05-12 15:21:00,
2013-05-12 11:34:00,40.0,37.0,29.80,SW,224,3.0,-999.0,89,-99.99,,,-99.99,,2013-05-12 15:34:00,
2013-05-12 11:42:00,40.0,37.0,29.80,SW,224,3.0,-999.0,89,-99.99,,,-99.99,,2013-05-12 15:42:00,
2013-05-12 11:52:00,40.0,36.0,29.81,SSW,213,4.0,-999.0,87,-99.99,,,-99.99,,2013-05-12 15:52:00,
2013-05-12 12:02:00,41.0,37.0,29.81,SW,232,3.0,-999.0,86,-99.99,,,-99.99,,2013-05-12 16:02:00,
2013-05-12 12:13:00,41.0,37.0,29.81,SW,232,3.0,-999.0,86,-99.99,,,-99.99,,2013-05-12 16:13:00,
2013-05-12 12:23:00,42.0,36.0,29.81,NW,313,4.0,-999.0,78,-99.99,,,-99.99,,2013-05-12 16:23:00,
2013-05-12 12:33:00,43.0,35.0,29.81,NW,323,6.0,-999.0,72,-99.99,,,-99.99,,2013-05-12 16:33:00,
2013-05-12 12:42:00,43.0,35.0,29.81,NW,323,6.0,-999.0,72,-99.99,,,-99.99,,2013-05-12 16:42:00,
2013-05-12 12:52:00,42.0,31.0,29.82,NW,319,6.0,-999.0,66,-99.99,,,-99.99,,2013-05-12 16:52:00,
2013-05-12 13:02:00,44.0,31.0,29.82,West,281,4.0,-999.0,61,-99.99,,,-99.99,,2013-05-12 17:02:00,
2013-05-12 13:12:00,44.0,31.0,29.82,West,281,4.0,-999.0,61,-99.99,,,-99.99,,2013-05-12 17:12:00,
2013-05-12 13:22:00,45.0,30.0,29.81,WNW,287,8.0,-999.0,55,-99.99,,,-99.99,,2013-05-12 17:22:00,
2013-05-12 13:32:00,45.0,29.0,29.82,SW,223,7.0,-999.0,54,-99.99,,,-99.99,,2013-05-12 17:32:00,
2013-05-12 13:42:00,45.0,29.0,29.82,SW,223,7.0,-999.0,54,-99.99,,,-99.99,,2013-05-12 17:42:00,
2013-05-12 13:52:00,46.0,33.0,29.82,NW,312,6.0,-999.0,60,-99.99,,,-99.99,,2013-05-12 17:52:00,
2013-05-12 14:01:00,45.0,30.0,29.82,WNW,302,8.0,-999.0,56,-99.99,,,-99.99,,2013-05-12 18:01:00,
2013-05-12 14:12:00,45.0,30.0,29.82,WNW,302,8.0,-999.0,56,-99.99,,,-99.99,,2013-05-12 18:12:00,
2013-05-12 14:22:00,46.0,30.0,29.83,SW,219,7.0,-999.0,54,-99.99,,,-99.99,,2013-05-12 18:22:00,
2013-05-12 14:32:00,48.0,30.0,29.83,WNW,294,7.0,-999.0,50,-99.99,,,-99.99,,2013-05-12 18:32:00,
2013-05-12 14:42:00,48.0,30.0,29.83,WNW,294,7.0,-999.0,50,-99.99,,,-99.99,,2013-05-12 18:42:00,
2013-05-12 14:52:00,45.0,31.0,29.83,WSW,244,5.0,-999.0,58,-99.99,,,-99.99,,2013-05-12 18:52:00,
2013-05-12 15:01:00,45.0,29.0,29.83,North,349,7.0,-999.0,54,-99.99,,,-99.99,,2013-05-12 19:01:00,
2013-05-12 15:11:00,45.0,29.0,29.83,North,349,7.0,-999.0,54,-99.99,,,-99.99,,2013-05-12 19:11:00,
2013-05-12 15:22:00,46.0,28.0,29.83,West,261,6.0,-999.0,50,-99.99,,,-99.99,,2013-05-12 19:22:00,
2013-05-12 15:32:00,46.0,31.0,29.84,West,267,6.0,-999.0,55,-99.99,,,-99.99,,2013-05-12 19:32:00,
2013-05-12 15:42:00,46.0,31.0,29.84,West,267,6.0,-999.0,55,-99.99,,,-99.99,,2013-05-12 19:42:00,
2013-05-12 15:52:00,47.0,31.0,29.83,South,185,6.0,-999.0,53,-99.99,,,-99.99,,2013-05-12 19:52:00,
2013-05-12 16:02:00,45.0,30.0,29.84,SSW,212,6.0,-999.0,55,-99.99,,,-99.99,,2013-05-12 20:02:00,
2013-05-12 16:11:00,45.0,30.0,29.84,SSW,212,6.0,-999.0,55,-99.99,,,-99.99,,2013-05-12 20:11:00,
2013-05-12 16:22:00,46.0,32.0,29.85,NNW,333,5.0,-999.0,59,-99.99,,,-99.99,,2013-05-12 20:22:00,
2013-05-12 16:32:00,44.0,31.0,29.84,SW,234,6.0,-999.0,60,-99.99,,,-99.99,,2013-05-12 20:32:00,
2013-05-12 16:42:00,44.0,31.0,29.84,SW,234,6.0,-999.0,60,-99.99,,,-99.99,,2013-05-12 20:42:00,
2013-05-12 16:52:00,42.0,30.0,29.86,SW,219,5.0,-999.0,62,-99.99,,,-99.99,,2013-05-12 20:52:00,
2013-05-12 17:01:00,42.0,31.0,29.87,NNW,332,3.0,-999.0,64,-99.99,,,-99.99,,2013-05-12 21:01:00,
2013-05-12 17:11:00,42.0,31.0,29.87,NNW,332,3.0,-999.0,64,-99.99,,,-99.99,,2013-05-12 21:11:00,
2013-05-12 17:21:00,43.0,29.0,29.87,WNW,284,6.0,-999.0,57,-99.99,,,-99.99,,2013-05-12 21:21:00,
2013-05-12 17:33:00,46.0,29.0,29.87,SSW,213,5.0,-999.0,52,-99.99,,,-99.99,,2013-05-12 21:33:00,
2013-05-12 17:42:00,46.0,29.0,29.87,SSW,213,5.0,-999.0,52,-99.99,,,-99.99,,2013-05-12 21:42:00,
2013-05-12 17:53:00,46.0,26.0,29.87,SW,234,6.0,-999.0,46,-99.99,,,-99.99,,2013-05-12 21:53:00,
2013-05-12 18:02:00,47.0,28.0,29.87,SW,223,4.0,-999.0,48,-99.99,,,-99.99,,2013-05-12 22:02:00,
2013-05-12 18:12:00,47.0,28.0,29.87,SW,223,4.0,-999.0,48,-99.99,,,-99.99,,2013-05-12 22:12:00,
2013-05-12 18:23:00,46.0,27.0,29.87,West,270,4.0,-999.0,47,-99.99,,,-99.99,,2013-05-12 22:23:00,
2013-05-12 18:33:00,46.0,26.0,29.87,NNW,336,5.0,-999.0,46,-99.99,,,-99.99,,2013-05-12 22:33:00,
2013-05-12 18:42:00,46.0,26.0,29.87,NNW,336,5.0,-999.0,46,-99.99,,,-99.99,,2013-05-12 22:42:00,
2013-05-12 18:52:00,46.0,28.0,29.87,NW,323,6.0,-999.0,49,-99.99,,,-99.99,,2013-05-12 22:52:00,
2013-05-12 19:02:00,45.0,27.0,29.87,WSW,251,5.0,-999.0,48,-99.99,,,-99.99,,2013-05-12 23:02:00,
2013-05-12 19:12:00,45.0,27.0,29.87,WSW,251,5.0,-999.0,48,-99.99,,,-99.99,,2013-05-12 23:12:00,
2013-05-12 19:22:00,45.0,28.0,29.88,North,359,4.0,-999.0,52,-99.99,,,-99.99,,2013-05-12 23:22:00,
2013-05-12 19:32:00,45.0,27.0,29.88,NNW,347,7.0,-999.0,50,-99.99,,,-99.99,,2013-05-12 23:32:00,
2013-05-12 19:42:00,45.0,27.0,29.88,NNW,347,7.0,-999.0,50,-99.99,,,-99.99,,2013-05-12 23:42:00,
2013-05-12 19:52:00,44.0,28.0,29.88,WNW,296,4.0,-999.0,54,-99.99,,,-99.99,,2013-05-12 23:52:00,
2013-05-12 20:01:00,43.0,28.0,29.88,NW,312,4.0,-999.0,55,-99.99,,,-99.99,,2013-05-13 00:01:00,
2013-05-12 20:11:00,43.0,28.0,29.88,NW,312,4.0,-999.0,55,-99.99,,,-99.99,,2013-05-13 00:11:00,
2013-05-12 20:22:00,43.0,28.0,29.89,SSW,209,3.0,-999.0,55,-99.99,,,-99.99,,2013-05-13 00:22:00,
2013-05-12 20:32:00,43.0,28.0,29.88,SW,217,4.0,-999.0,56,-99.99,,,-99.99,,2013-05-13 00:32:00,
2013-05-12 20:42:00,43.0,28.0,29.88,SW,217,4.0,-999.0,56,-99.99,,,-99.99,,2013-05-13 00:42:00,
2013-05-12 20:51:00,43.0,29.0,29.88,SW,226,3.0,-999.0,58,-99.99,,,-99.99,,2013-05-13 00:51:00,
2013-05-12 21:01:00,41.0,31.0,29.89,NW,304,3.0,-999.0,66,-99.99,,,-99.99,,2013-05-13 01:01:00,
2013-05-12 21:11:00,41.0,31.0,29.89,NW,304,3.0,-999.0,66,-99.99,,,-99.99,,2013-05-13 01:11:00,
2013-05-12 21:22:00,41.0,31.0,29.90,WSW,247,1.0,-999.0,68,-99.99,,,-99.99,,2013-05-13 01:22:00,
2013-05-12 21:32:00,41.0,31.0,29.90,SW,219,4.0,-999.0,68,-99.99,,,-99.99,,2013-05-13 01:32:00,
2013-05-12 21:42:00,41.0,31.0,29.90,SW,219,4.0,-999.0,68,-99.99,,,-99.99,,2013-05-13 01:42:00,
2013-05-12 21:52:00,41.0,31.0,29.91,NW,304,6.0,-999.0,67,-99.99,,,-99.99,,2013-05-13 01:52:00,
2013-05-12 22:02:00,40.0,31.0,29.92,NW,323,5.0,-999.0,70,-99.99,,,-99.99,,2013-05-13 02:02:00,
2013-05-12 22:11:00,40.0,31.0,29.92,NW,323,5.0,-999.0,70,-99.99,,,-99.99,,2013-05-13 02:11:00,
2013-05-12 22:21:00,39.0,32.0,29.93,NW,319,6.0,-999.0,75,-99.99,,,-99.99,,2013-05-13 02:21:00,
2013-05-12 22:32:00,38.0,30.0,29.96,NW,308,4.0,-999.0,74,-99.99,,,-99.99,,2013-05-13 02:32:00,
2013-05-12 22:42:00,38.0,30.0,29.96,NW,308,4.0,-999.0,74,-99.99,,,-99.99,,2013-05-13 02:42:00,
2013-05-12 22:52:00,38.0,29.0,29.96,NNW,330,4.0,-999.0,71,-99.99,,,-99.99,,2013-05-13 02:52:00,
2013-05-12 23:02:00,38.0,28.0,29.96,NNW,347,5.0,-999.0,68,-99.99,,,-99.99,,2013-05-13 03:02:00,
2013-05-12 23:11:00,38.0,28.0,29.96,NNW,347,5.0,-999.0,68,-99.99,,,-99.99,,2013-05-13 03:11:00,
2013-05-12 23:22:00,38.0,28.0,29.97,NNW,347,4.0,-999.0,66,-99.99,,,-99.99,,2013-05-13 03:22:00,
2013-05-12 23:33:00,38.0,27.0,29.96,NNW,328,3.0,-999.0,65,-99.99,,,-99.99,,2013-05-13 03:33:00,
2013-05-12 23:42:00,38.0,27.0,29.96,NNW,328,3.0,-999.0,65,-99.99,,,-99.99,,2013-05-13 03:42:00,
2013-05-12 23:53:00,37.0,26.0,29.97,NW,320,3.0,-999.0,65,-99.99,,,-99.99,,2013-05-13 03:53:00,